sensor_id;sensor_type;location;lat;lon;timestamp;P1;durP1;ratioP1;P2;durP2;ratioP2
78589;SDS011;67888;50.228;7.828;2023-03-23T00:01:54;6.28;;;1.35;;
78589;SDS011;67888;50.228;7.828;2023-03-23T00:06:55;4.90;;;1.27;;
78589;SDS011;67888;50.228;7.828;2023-03-23T00:11:55;4.07;;;1.50;;
78589;SDS011;67888;50.228;7.828;2023-03-23T00:16:57;3.15;;;1.23;;
78589;SDS011;67888;50.228;7.828;2023-03-23T00:21:57;3.37;;;1.07;;
78589;SDS011;67888;50.228;7.828;2023-03-23T00:27:00;4.07;;;1.23;;
78589;SDS011;67888;50.228;7.828;2023-03-23T00:32:03;4.33;;;1.50;;
78589;SDS011;67888;50.228;7.828;2023-03-23T00:37:03;4.40;;;1.20;;
78589;SDS011;67888;50.228;7.828;2023-03-23T00:42:04;4.05;;;1.30;;
78589;SDS011;67888;50.228;7.828;2023-03-23T00:47:05;4.17;;;1.30;;
78589;SDS011;67888;50.228;7.828;2023-03-23T00:52:07;4.63;;;1.60;;
78589;SDS011;67888;50.228;7.828;2023-03-23T00:57:09;3.85;;;1.20;;
78589;SDS011;67888;50.228;7.828;2023-03-23T01:02:10;3.73;;;1.20;;
78589;SDS011;67888;50.228;7.828;2023-03-23T01:07:10;3.03;;;1.20;;
78589;SDS011;67888;50.228;7.828;2023-03-23T01:12:14;3.70;;;1.40;;
78589;SDS011;67888;50.228;7.828;2023-03-23T01:17:15;4.37;;;1.20;;
78589;SDS011;67888;50.228;7.828;2023-03-23T01:22:15;3.20;;;1.23;;
78589;SDS011;67888;50.228;7.828;2023-03-23T01:27:16;3.47;;;1.20;;
78589;SDS011;67888;50.228;7.828;2023-03-23T01:32:16;3.60;;;1.50;;
78589;SDS011;67888;50.228;7.828;2023-03-23T01:37:17;3.58;;;1.30;;
78589;SDS011;67888;50.228;7.828;2023-03-23T01:42:17;3.67;;;1.50;;
78589;SDS011;67888;50.228;7.828;2023-03-23T01:47:19;3.13;;;1.30;;
78589;SDS011;67888;50.228;7.828;2023-03-23T01:52:25;3.67;;;1.40;;
78589;SDS011;67888;50.228;7.828;2023-03-23T01:57:29;4.23;;;1.30;;
78589;SDS011;67888;50.228;7.828;2023-03-23T02:02:31;4.72;;;1.13;;
78589;SDS011;67888;50.228;7.828;2023-03-23T02:07:35;3.17;;;1.20;;
78589;SDS011;67888;50.228;7.828;2023-03-23T02:12:35;5.17;;;1.23;;
78589;SDS011;67888;50.228;7.828;2023-03-23T02:37:57;2.73;;;1.37;;
78589;SDS011;67888;50.228;7.828;2023-03-23T02:43:01;5.20;;;1.30;;
78589;SDS011;67888;50.228;7.828;2023-03-23T02:48:04;3.38;;;1.38;;
78589;SDS011;67888;50.228;7.828;2023-03-23T02:53:08;4.97;;;1.27;;
78589;SDS011;67888;50.228;7.828;2023-03-23T02:58:11;3.77;;;1.30;;
78589;SDS011;67888;50.228;7.828;2023-03-23T03:03:13;3.90;;;1.40;;
78589;SDS011;67888;50.228;7.828;2023-03-23T03:08:25;3.40;;;1.20;;
78589;SDS011;67888;50.228;7.828;2023-03-23T03:24:13;3.78;;;1.40;;
78589;SDS011;67888;50.228;7.828;2023-03-23T03:29:18;4.17;;;1.53;;
78589;SDS011;67888;50.228;7.828;2023-03-23T03:34:23;4.53;;;1.47;;
78589;SDS011;67888;50.228;7.828;2023-03-23T03:39:24;3.75;;;1.63;;
78589;SDS011;67888;50.228;7.828;2023-03-23T03:44:25;4.20;;;1.40;;
78589;SDS011;67888;50.228;7.828;2023-03-23T03:49:26;5.57;;;1.40;;
78589;SDS011;67888;50.228;7.828;2023-03-23T03:54:26;4.90;;;1.53;;
78589;SDS011;67888;50.228;7.828;2023-03-23T03:59:27;3.90;;;1.50;;
78589;SDS011;67888;50.228;7.828;2023-03-23T04:04:27;4.85;;;1.52;;
78589;SDS011;67888;50.228;7.828;2023-03-23T04:09:28;4.77;;;1.50;;
78589;SDS011;67888;50.228;7.828;2023-03-23T04:14:31;4.95;;;1.50;;
78589;SDS011;67888;50.228;7.828;2023-03-23T04:19:31;4.13;;;1.73;;
78589;SDS011;67888;50.228;7.828;2023-03-23T04:24:33;4.73;;;1.70;;
78589;SDS011;67888;50.228;7.828;2023-03-23T04:29:33;5.43;;;1.80;;
78589;SDS011;67888;50.228;7.828;2023-03-23T04:34:34;4.50;;;1.60;;
78589;SDS011;67888;50.228;7.828;2023-03-23T04:39:35;4.37;;;1.70;;
78589;SDS011;67888;50.228;7.828;2023-03-23T04:44:36;5.80;;;2.10;;
78589;SDS011;67888;50.228;7.828;2023-03-23T04:49:36;4.20;;;1.57;;
78589;SDS011;67888;50.228;7.828;2023-03-23T04:54:37;4.43;;;2.00;;
78589;SDS011;67888;50.228;7.828;2023-03-23T04:59:38;5.30;;;1.80;;
78589;SDS011;67888;50.228;7.828;2023-03-23T05:04:38;4.70;;;1.80;;
78589;SDS011;67888;50.228;7.828;2023-03-23T05:09:40;5.75;;;2.20;;
78589;SDS011;67888;50.228;7.828;2023-03-23T05:14:41;4.93;;;2.10;;
78589;SDS011;67888;50.228;7.828;2023-03-23T05:19:42;6.13;;;2.50;;
78589;SDS011;67888;50.228;7.828;2023-03-23T05:24:49;5.28;;;1.65;;
78589;SDS011;67888;50.228;7.828;2023-03-23T05:29:52;4.17;;;1.63;;
78589;SDS011;67888;50.228;7.828;2023-03-23T05:34:52;4.73;;;1.60;;
78589;SDS011;67888;50.228;7.828;2023-03-23T05:39:53;4.87;;;1.67;;
78589;SDS011;67888;50.228;7.828;2023-03-23T05:44:55;5.60;;;2.17;;
78589;SDS011;67888;50.228;7.828;2023-03-23T05:49:56;4.27;;;1.80;;
78589;SDS011;67888;50.228;7.828;2023-03-23T05:54:56;5.30;;;2.00;;
78589;SDS011;67888;50.228;7.828;2023-03-23T05:59:57;3.67;;;1.57;;
78589;SDS011;67888;50.228;7.828;2023-03-23T06:04:58;5.07;;;1.73;;
78589;SDS011;67888;50.228;7.828;2023-03-23T06:09:58;3.27;;;1.30;;
78589;SDS011;67888;50.228;7.828;2023-03-23T06:14:59;4.80;;;1.77;;
78589;SDS011;67888;50.228;7.828;2023-03-23T06:19:59;4.47;;;1.30;;
78589;SDS011;67888;50.228;7.828;2023-03-23T06:24:59;4.03;;;1.50;;
78589;SDS011;67888;50.228;7.828;2023-03-23T06:30:01;3.87;;;1.40;;
78589;SDS011;67888;50.228;7.828;2023-03-23T06:35:03;2.83;;;1.30;;
78589;SDS011;67888;50.228;7.828;2023-03-23T06:40:04;4.82;;;1.60;;
78589;SDS011;67888;50.228;7.828;2023-03-23T06:45:10;4.33;;;1.40;;
78589;SDS011;67888;50.228;7.828;2023-03-23T06:50:11;4.80;;;1.50;;
78589;SDS011;67888;50.228;7.828;2023-03-23T06:55:11;3.60;;;1.40;;
78589;SDS011;67888;50.228;7.828;2023-03-23T07:00:12;5.13;;;1.70;;
78589;SDS011;67888;50.228;7.828;2023-03-23T07:05:13;4.22;;;1.20;;
78589;SDS011;67888;50.228;7.828;2023-03-23T07:10:14;6.57;;;1.63;;
78589;SDS011;67888;50.228;7.828;2023-03-23T07:15:15;4.53;;;1.50;;
78589;SDS011;67888;50.228;7.828;2023-03-23T07:20:16;5.57;;;1.83;;
78589;SDS011;67888;50.228;7.828;2023-03-23T07:25:17;4.13;;;1.52;;
78589;SDS011;67888;50.228;7.828;2023-03-23T07:30:18;5.75;;;1.73;;
78589;SDS011;67888;50.228;7.828;2023-03-23T07:35:18;6.20;;;1.50;;
78589;SDS011;67888;50.228;7.828;2023-03-23T07:40:19;5.03;;;1.53;;
78589;SDS011;67888;50.228;7.828;2023-03-23T07:45:20;4.00;;;1.50;;
78589;SDS011;67888;50.228;7.828;2023-03-23T07:50:21;3.40;;;1.30;;
78589;SDS011;67888;50.228;7.828;2023-03-23T07:55:25;4.22;;;1.42;;
78589;SDS011;67888;50.228;7.828;2023-03-23T08:00:27;5.13;;;1.85;;
78589;SDS011;67888;50.228;7.828;2023-03-23T08:05:29;4.60;;;1.30;;
78589;SDS011;67888;50.228;7.828;2023-03-23T08:10:30;3.70;;;1.60;;
78589;SDS011;67888;50.228;7.828;2023-03-23T08:15:30;4.32;;;1.40;;
78589;SDS011;67888;50.228;7.828;2023-03-23T08:20:31;5.17;;;1.37;;
78589;SDS011;67888;50.228;7.828;2023-03-23T08:25:32;3.53;;;1.30;;
78589;SDS011;67888;50.228;7.828;2023-03-23T08:30:33;5.00;;;1.60;;
78589;SDS011;67888;50.228;7.828;2023-03-23T08:35:34;3.83;;;1.30;;
78589;SDS011;67888;50.228;7.828;2023-03-23T08:40:35;3.85;;;1.30;;
78589;SDS011;67888;50.228;7.828;2023-03-23T08:45:36;3.37;;;1.30;;
78589;SDS011;67888;50.228;7.828;2023-03-23T08:50:37;3.57;;;1.30;;
78589;SDS011;67888;50.228;7.828;2023-03-23T08:55:37;4.37;;;1.50;;
78589;SDS011;67888;50.228;7.828;2023-03-23T09:00:39;4.97;;;1.60;;
78589;SDS011;67888;50.228;7.828;2023-03-23T09:05:40;3.40;;;1.30;;
78589;SDS011;67888;50.228;7.828;2023-03-23T09:10:46;2.60;;;1.03;;
78589;SDS011;67888;50.228;7.828;2023-03-23T09:15:49;2.78;;;1.10;;
78589;SDS011;67888;50.228;7.828;2023-03-23T09:20:50;3.58;;;1.05;;
78589;SDS011;67888;50.228;7.828;2023-03-23T09:25:51;2.63;;;1.20;;
78589;SDS011;67888;50.228;7.828;2023-03-23T09:30:54;2.47;;;1.30;;
78589;SDS011;67888;50.228;7.828;2023-03-23T09:35:57;5.03;;;1.20;;
78589;SDS011;67888;50.228;7.828;2023-03-23T09:41:08;2.25;;;1.00;;
78589;SDS011;67888;50.228;7.828;2023-03-23T09:56:44;2.92;;;1.17;;
78589;SDS011;67888;50.228;7.828;2023-03-23T10:01:47;2.30;;;0.90;;
78589;SDS011;67888;50.228;7.828;2023-03-23T10:06:57;5.13;;;1.13;;
78589;SDS011;67888;50.228;7.828;2023-03-23T10:12:10;2.38;;;1.10;;
78589;SDS011;67888;50.228;7.828;2023-03-23T10:17:56;2.50;;;1.10;;
78589;SDS011;67888;50.228;7.828;2023-03-23T10:28:38;3.38;;;1.20;;
78589;SDS011;67888;50.228;7.828;2023-03-23T10:33:43;2.20;;;0.90;;
78589;SDS011;67888;50.228;7.828;2023-03-23T10:38:49;2.60;;;1.00;;
78589;SDS011;67888;50.228;7.828;2023-03-23T10:44:10;3.53;;;1.27;;
78589;SDS011;67888;50.228;7.828;2023-03-23T10:49:21;3.35;;;1.13;;
78589;SDS011;67888;50.228;7.828;2023-03-23T10:54:27;1.90;;;1.07;;
78589;SDS011;67888;50.228;7.828;2023-03-23T10:59:39;3.08;;;1.08;;
78589;SDS011;67888;50.228;7.828;2023-03-23T11:04:41;3.13;;;0.90;;
78589;SDS011;67888;50.228;7.828;2023-03-23T11:09:53;3.20;;;1.40;;
78589;SDS011;67888;50.228;7.828;2023-03-23T11:15:03;3.35;;;1.00;;
78589;SDS011;67888;50.228;7.828;2023-03-23T11:20:18;2.65;;;1.10;;
78589;SDS011;67888;50.228;7.828;2023-03-23T11:25:20;3.33;;;1.10;;
78589;SDS011;67888;50.228;7.828;2023-03-23T11:30:22;2.90;;;0.90;;
78589;SDS011;67888;50.228;7.828;2023-03-23T11:35:27;2.72;;;0.85;;
78589;SDS011;67888;50.228;7.828;2023-03-23T11:40:29;2.30;;;0.83;;
78589;SDS011;67888;50.228;7.828;2023-03-23T11:50:45;3.78;;;1.10;;
78589;SDS011;67888;50.228;7.828;2023-03-23T11:55:55;3.70;;;1.08;;
78589;SDS011;67888;50.228;7.828;2023-03-23T12:06:09;3.08;;;1.30;;
78589;SDS011;67888;50.228;7.828;2023-03-23T12:11:22;2.67;;;1.00;;
78589;SDS011;67888;50.228;7.828;2023-03-23T12:21:57;2.58;;;0.80;;
78589;SDS011;67888;50.228;7.828;2023-03-23T12:27:18;2.85;;;0.90;;
78589;SDS011;67888;50.228;7.828;2023-03-23T12:38:04;2.17;;;1.03;;
78589;SDS011;67888;50.228;7.828;2023-03-23T12:48:12;2.60;;;0.90;;
78589;SDS011;67888;50.228;7.828;2023-03-23T12:58:26;3.10;;;1.02;;
78589;SDS011;67888;50.228;7.828;2023-03-23T13:03:39;2.08;;;0.90;;
78589;SDS011;67888;50.228;7.828;2023-03-23T13:08:46;2.20;;;0.93;;
78589;SDS011;67888;50.228;7.828;2023-03-23T13:13:52;2.67;;;0.90;;
78589;SDS011;67888;50.228;7.828;2023-03-23T13:24:46;1.90;;;0.90;;
78589;SDS011;67888;50.228;7.828;2023-03-23T13:29:55;2.07;;;0.87;;
78589;SDS011;67888;50.228;7.828;2023-03-23T13:35:00;2.65;;;1.05;;
78589;SDS011;67888;50.228;7.828;2023-03-23T13:40:47;3.15;;;0.90;;
78589;SDS011;67888;50.228;7.828;2023-03-23T13:50:28;3.13;;;1.13;;
78589;SDS011;67888;50.228;7.828;2023-03-23T13:55:38;3.40;;;0.80;;
78589;SDS011;67888;50.228;7.828;2023-03-23T14:01:00;2.38;;;0.90;;
78589;SDS011;67888;50.228;7.828;2023-03-23T14:06:03;3.00;;;0.93;;
78589;SDS011;67888;50.228;7.828;2023-03-23T14:16:24;2.85;;;1.17;;
78589;SDS011;67888;50.228;7.828;2023-03-23T14:21:40;2.73;;;1.27;;
78589;SDS011;67888;50.228;7.828;2023-03-23T14:26:42;3.33;;;1.23;;
78589;SDS011;67888;50.228;7.828;2023-03-23T14:31:45;4.30;;;1.40;;
78589;SDS011;67888;50.228;7.828;2023-03-23T14:36:55;3.88;;;1.38;;
78589;SDS011;67888;50.228;7.828;2023-03-23T14:42:12;3.77;;;1.20;;
78589;SDS011;67888;50.228;7.828;2023-03-23T14:47:36;3.63;;;1.17;;
78589;SDS011;67888;50.228;7.828;2023-03-23T14:52:40;3.03;;;1.30;;
78589;SDS011;67888;50.228;7.828;2023-03-23T14:57:41;4.00;;;1.50;;
78589;SDS011;67888;50.228;7.828;2023-03-23T15:02:43;5.67;;;1.80;;
78589;SDS011;67888;50.228;7.828;2023-03-23T15:07:47;5.07;;;1.50;;
78589;SDS011;67888;50.228;7.828;2023-03-23T15:12:54;4.53;;;1.52;;
78589;SDS011;67888;50.228;7.828;2023-03-23T15:17:58;3.43;;;1.20;;
78589;SDS011;67888;50.228;7.828;2023-03-23T15:23:06;3.73;;;1.40;;
78589;SDS011;67888;50.228;7.828;2023-03-23T15:28:20;5.25;;;1.70;;
78589;SDS011;67888;50.228;7.828;2023-03-23T15:33:22;6.38;;;1.48;;
78589;SDS011;67888;50.228;7.828;2023-03-23T15:38:31;4.80;;;1.40;;
78589;SDS011;67888;50.228;7.828;2023-03-23T15:43:34;5.22;;;1.60;;
78589;SDS011;67888;50.228;7.828;2023-03-23T15:48:48;4.20;;;1.52;;
78589;SDS011;67888;50.228;7.828;2023-03-23T15:53:50;5.97;;;1.60;;
78589;SDS011;67888;50.228;7.828;2023-03-23T15:58:52;5.25;;;1.80;;
78589;SDS011;67888;50.228;7.828;2023-03-23T16:04:14;5.05;;;1.50;;
78589;SDS011;67888;50.228;7.828;2023-03-23T16:09:17;5.53;;;1.40;;
78589;SDS011;67888;50.228;7.828;2023-03-23T16:14:19;5.55;;;1.55;;
78589;SDS011;67888;50.228;7.828;2023-03-23T16:19:20;3.90;;;1.50;;
78589;SDS011;67888;50.228;7.828;2023-03-23T16:24:23;7.20;;;1.58;;
78589;SDS011;67888;50.228;7.828;2023-03-23T16:29:23;4.93;;;1.30;;
78589;SDS011;67888;50.228;7.828;2023-03-23T16:34:24;4.77;;;1.20;;
78589;SDS011;67888;50.228;7.828;2023-03-23T16:39:27;4.35;;;1.60;;
78589;SDS011;67888;50.228;7.828;2023-03-23T16:44:28;5.47;;;1.43;;
78589;SDS011;67888;50.228;7.828;2023-03-23T16:49:28;6.20;;;1.50;;
78589;SDS011;67888;50.228;7.828;2023-03-23T16:54:29;5.90;;;1.52;;
78589;SDS011;67888;50.228;7.828;2023-03-23T16:59:30;5.03;;;1.57;;
78589;SDS011;67888;50.228;7.828;2023-03-23T17:04:31;7.47;;;1.90;;
78589;SDS011;67888;50.228;7.828;2023-03-23T17:09:32;5.47;;;1.80;;
78589;SDS011;67888;50.228;7.828;2023-03-23T17:14:33;6.07;;;1.40;;
78589;SDS011;67888;50.228;7.828;2023-03-23T17:19:34;5.03;;;1.63;;
78589;SDS011;67888;50.228;7.828;2023-03-23T17:24:34;3.90;;;1.40;;
78589;SDS011;67888;50.228;7.828;2023-03-23T17:29:34;8.80;;;1.70;;
78589;SDS011;67888;50.228;7.828;2023-03-23T17:34:35;9.50;;;1.67;;
78589;SDS011;67888;50.228;7.828;2023-03-23T17:39:36;3.73;;;1.40;;
78589;SDS011;67888;50.228;7.828;2023-03-23T17:44:36;6.40;;;1.80;;
78589;SDS011;67888;50.228;7.828;2023-03-23T17:49:37;4.80;;;1.77;;
78589;SDS011;67888;50.228;7.828;2023-03-23T17:54:37;5.32;;;1.42;;
78589;SDS011;67888;50.228;7.828;2023-03-23T17:59:38;4.97;;;1.50;;
78589;SDS011;67888;50.228;7.828;2023-03-23T18:04:39;5.63;;;1.80;;
78589;SDS011;67888;50.228;7.828;2023-03-23T18:09:41;7.15;;;1.83;;
78589;SDS011;67888;50.228;7.828;2023-03-23T18:14:42;4.93;;;1.53;;
78589;SDS011;67888;50.228;7.828;2023-03-23T18:19:43;5.93;;;1.88;;
78589;SDS011;67888;50.228;7.828;2023-03-23T18:24:43;5.13;;;1.80;;
78589;SDS011;67888;50.228;7.828;2023-03-23T18:29:44;7.28;;;2.20;;
78589;SDS011;67888;50.228;7.828;2023-03-23T18:34:45;8.87;;;4.70;;
78589;SDS011;67888;50.228;7.828;2023-03-23T18:39:45;9.90;;;3.30;;
78589;SDS011;67888;50.228;7.828;2023-03-23T18:44:46;8.53;;;3.30;;
78589;SDS011;67888;50.228;7.828;2023-03-23T18:49:47;6.90;;;2.40;;
78589;SDS011;67888;50.228;7.828;2023-03-23T18:54:50;9.07;;;2.70;;
78589;SDS011;67888;50.228;7.828;2023-03-23T18:59:52;7.68;;;3.45;;
78589;SDS011;67888;50.228;7.828;2023-03-23T19:04:52;7.23;;;3.83;;
78589;SDS011;67888;50.228;7.828;2023-03-23T19:09:53;11.10;;;5.80;;
78589;SDS011;67888;50.228;7.828;2023-03-23T19:14:53;12.63;;;5.47;;
78589;SDS011;67888;50.228;7.828;2023-03-23T19:19:54;10.48;;;5.78;;
78589;SDS011;67888;50.228;7.828;2023-03-23T19:24:55;17.47;;;10.10;;
78589;SDS011;67888;50.228;7.828;2023-03-23T19:29:56;14.07;;;7.57;;
78589;SDS011;67888;50.228;7.828;2023-03-23T19:34:56;26.77;;;17.30;;
78589;SDS011;67888;50.228;7.828;2023-03-23T19:39:57;13.70;;;7.43;;
78589;SDS011;67888;50.228;7.828;2023-03-23T19:44:58;13.23;;;7.50;;
78589;SDS011;67888;50.228;7.828;2023-03-23T19:50:00;10.65;;;5.10;;
78589;SDS011;67888;50.228;7.828;2023-03-23T19:55:00;22.67;;;17.37;;
78589;SDS011;67888;50.228;7.828;2023-03-23T20:00:03;13.20;;;5.55;;
78589;SDS011;67888;50.228;7.828;2023-03-23T20:05:06;20.07;;;10.30;;
78589;SDS011;67888;50.228;7.828;2023-03-23T20:10:07;6.93;;;2.78;;
78589;SDS011;67888;50.228;7.828;2023-03-23T20:15:08;7.10;;;3.37;;
78589;SDS011;67888;50.228;7.828;2023-03-23T20:20:09;6.10;;;2.65;;
78589;SDS011;67888;50.228;7.828;2023-03-23T20:25:10;6.47;;;2.90;;
78589;SDS011;67888;50.228;7.828;2023-03-23T20:30:11;6.33;;;3.00;;
78589;SDS011;67888;50.228;7.828;2023-03-23T20:35:13;7.72;;;3.40;;
78589;SDS011;67888;50.228;7.828;2023-03-23T20:40:13;7.10;;;3.40;;
78589;SDS011;67888;50.228;7.828;2023-03-23T20:45:14;8.43;;;3.50;;
78589;SDS011;67888;50.228;7.828;2023-03-23T20:50:15;8.30;;;3.20;;
78589;SDS011;67888;50.228;7.828;2023-03-23T20:55:16;6.50;;;2.90;;
78589;SDS011;67888;50.228;7.828;2023-03-23T21:00:17;7.38;;;3.25;;
78589;SDS011;67888;50.228;7.828;2023-03-23T21:05:18;6.83;;;3.10;;
78589;SDS011;67888;50.228;7.828;2023-03-23T21:10:19;8.32;;;3.40;;
78589;SDS011;67888;50.228;7.828;2023-03-23T21:15:21;8.10;;;3.77;;
78589;SDS011;67888;50.228;7.828;2023-03-23T21:20:22;7.57;;;3.58;;
78589;SDS011;67888;50.228;7.828;2023-03-23T21:25:23;11.67;;;4.10;;
78589;SDS011;67888;50.228;7.828;2023-03-23T21:30:24;8.82;;;4.43;;
78589;SDS011;67888;50.228;7.828;2023-03-23T21:35:25;8.87;;;4.63;;
78589;SDS011;67888;50.228;7.828;2023-03-23T21:40:25;8.88;;;4.47;;
78589;SDS011;67888;50.228;7.828;2023-03-23T21:45:26;8.00;;;3.93;;
78589;SDS011;67888;50.228;7.828;2023-03-23T21:50:27;10.73;;;4.70;;
78589;SDS011;67888;50.228;7.828;2023-03-23T21:55:29;8.27;;;4.40;;
78589;SDS011;67888;50.228;7.828;2023-03-23T22:00:30;9.35;;;4.68;;
78589;SDS011;67888;50.228;7.828;2023-03-23T22:05:31;7.23;;;3.70;;
78589;SDS011;67888;50.228;7.828;2023-03-23T22:10:32;9.60;;;4.00;;
78589;SDS011;67888;50.228;7.828;2023-03-23T22:15:32;8.00;;;4.30;;
78589;SDS011;67888;50.228;7.828;2023-03-23T22:20:32;8.77;;;4.00;;
78589;SDS011;67888;50.228;7.828;2023-03-23T22:25:33;7.73;;;3.60;;
78589;SDS011;67888;50.228;7.828;2023-03-23T22:30:35;8.15;;;3.70;;
78589;SDS011;67888;50.228;7.828;2023-03-23T22:35:36;7.17;;;3.23;;
78589;SDS011;67888;50.228;7.828;2023-03-23T22:40:36;7.65;;;3.40;;
78589;SDS011;67888;50.228;7.828;2023-03-23T22:45:37;7.80;;;3.30;;
78589;SDS011;67888;50.228;7.828;2023-03-23T22:50:37;9.33;;;2.90;;
78589;SDS011;67888;50.228;7.828;2023-03-23T22:55:44;8.57;;;3.17;;
78589;SDS011;67888;50.228;7.828;2023-03-23T23:00:47;7.10;;;3.17;;
78589;SDS011;67888;50.228;7.828;2023-03-23T23:05:49;6.73;;;3.23;;
78589;SDS011;67888;50.228;7.828;2023-03-23T23:10:51;9.75;;;3.40;;
78589;SDS011;67888;50.228;7.828;2023-03-23T23:15:54;8.55;;;3.65;;
78589;SDS011;67888;50.228;7.828;2023-03-23T23:20:57;11.50;;;3.90;;
78589;SDS011;67888;50.228;7.828;2023-03-23T23:25:59;8.13;;;3.58;;
78589;SDS011;67888;50.228;7.828;2023-03-23T23:31:00;10.17;;;3.60;;
78589;SDS011;67888;50.228;7.828;2023-03-23T23:36:01;9.02;;;3.88;;
78589;SDS011;67888;50.228;7.828;2023-03-23T23:41:01;8.60;;;3.90;;
78589;SDS011;67888;50.228;7.828;2023-03-23T23:46:02;8.70;;;3.70;;
78589;SDS011;67888;50.228;7.828;2023-03-23T23:51:02;7.40;;;3.23;;
78589;SDS011;67888;50.228;7.828;2023-03-23T23:56:03;7.05;;;3.22;;
